Queen Sapphire — 9V7564 — position and weather

sailwx.info

Track history (hours):
 
Tides and Currents Weather Stations Pressure Air Temp Water Temp Dewpoint Dewpoint Depression Visibility Wind Speed Wind Dir Waves Ship Positions

Queen Sapphire

Last reported at 2015-May-23 21:33 UTC. Time now 2015-May-25 03:24 UTC.
Position N 31°12' E 032°18'.

Length 200 m; draft 9.7 m.

Type: Cargo ship. MMSI: 564254000.

Date/timePositionNaut miles runAvg speedWind from/ knotsBaromVisibWave heightAir tempDewpointWater temp
2015-May-23 21:33N 31°12' E 032°18'6 6.5
2015-May-23 20:33N 31°18' E 032°21'4 3.7
2015-May-23 19:33N 31°22' E 032°21'0 0.1
2015-May-23 18:33N 31°22' E 032°21'0 0.0
2015-May-23 17:33N 31°22' E 032°21'0 0.1
2015-May-23 16:33N 31°22' E 032°21'14 7.2
2015-May-23 14:33N 31°33' E 032°11'8 7.7
2015-May-23 13:34N 31°39' E 032°04'7 7.5
2015-May-23 12:33N 31°44' E 031°58'9 8.6
2015-May-23 11:33N 31°47' E 031°49'1212.0
2015-May-23 10:33N 31°50' E 031°35'1111.5
2015-May-23 09:34N 31°52' E 031°22'1 1.4
2015-May-23 08:33N 31°53' E 031°20'2 1.5
2015-May-23 07:33N 31°54' E 031°19'2 1.6
2015-May-23 06:29N 31°55' E 031°18'1 1.4
2015-May-23 05:33N 31°56' E 031°17'1 1.3
2015-May-23 04:33N 31°57' E 031°16'1 1.2
2015-May-23 03:25N 31°58' E 031°15'1 0.6
2015-May-23 02:33N 31°59' E 031°15'1 0.7
2015-May-23 00:32N 31°59' E 031°13'11015.4
2015-May-22 17:22N 32°29' E 029°08'1416.9
2015-May-22 16:33N 32°33' E 028°52'1717.2
2015-May-22 15:33N 32°38' E 028°33'54517.0
2015-May-21 07:23N 35°19' E 018°04'1518.1
2015-May-21 06:33N 35°23' E 017°46'1717.6
2015-May-21 05:33N 35°28' E 017°26'1616.4
2015-May-21 04:33N 35°33' E 017°07'1716.5
2015-May-21 03:33N 35°38' E 016°47'1716.6
2015-May-21 02:33N 35°43' E 016°28'1716.6
2015-May-21 01:33N 35°48' E 016°08'1616.6
2015-May-21 00:33N 35°53' E 015°49'1716.8
2015-May-20 23:33N 35°57' E 015°29'1716.9
2015-May-20 22:33N 36°02' E 015°09'1716.5
2015-May-20 21:33N 36°07' E 014°49'1616.4
2015-May-20 20:33N 36°12' E 014°30'1616.4
2015-May-20 19:33N 36°18' E 014°11'1716.8
2015-May-20 18:33N 36°25' E 013°52'1716.8
2015-May-20 17:33N 36°31' E 013°33'1616.2
2015-May-20 16:33N 36°38' E 013°14'1716.5
2015-May-20 15:33N 36°45' E 012°55'1716.6
2015-May-20 14:33N 36°52' E 012°37'1716.6
2015-May-20 13:33N 36°59' E 012°18'1716.5
2015-May-20 12:33N 37°05' E 011°59'1616.4
2015-May-20 11:33N 37°12' E 011°40'1716.7
2015-May-20 10:33N 37°19' E 011°21'1716.9
2015-May-20 09:33N 37°25' E 011°01'1717.0
2015-May-20 08:33N 37°31' E 010°41'1716.8
2015-May-20 07:32N 37°33' E 010°20'5917.8
2015-May-20 04:12N 37°21' E 009°07'1317.0
2015-May-20 03:28N 37°19' E 008°51'33516.8
2015-May-19 07:33N 36°50' E 001°52'4719.7
2015-May-19 05:11N 36°42' E 000°55'1320.3
2015-May-19 04:32N 36°39' E 000°39'2020.5
2015-May-19 03:33N 36°36' E 000°14'2020.2
2015-May-19 02:32N 36°32' W 000°11'2419.9
2015-May-19 01:19N 36°28' W 000°41'3619.4
2015-May-18 23:28N 36°21' W 001°24'18419.6
2015-May-18 14:07N 35°59' W 005°10'1220.9
2015-May-18 13:33N 35°57' W 005°24'16518.4
2015-May-18 04:33N 36°27' W 008°46'2618.3
2015-May-18 03:07N 36°34' W 009°17'1018.4
2015-May-18 02:33N 36°41' W 009°26'1818.3
2015-May-18 01:33N 36°58' W 009°36'1918.9
2015-May-18 00:33N 37°16' W 009°42'1919.2
2015-May-17 23:33N 37°35' W 009°49'1919.3
2015-May-17 22:33N 37°54' W 009°53'1919.5
2015-May-17 21:33N 38°12' W 009°59'1919.5
2015-May-17 20:33N 38°31' W 010°05'1919.5
2015-May-17 19:33N 38°51' W 010°06'2019.8
2015-May-17 18:33N 39°11' W 010°07'1919.6
2015-May-17 17:33N 39°30' W 010°07'68918.0
2015-May-16 03:21N 49°59' W 003°29'1417.3
2015-May-16 02:32N 50°06' W 003°10'1818.2
2015-May-16 01:33N 50°14' W 002°45'4521.1
2015-May-15 23:24N 50°25' W 001°36'1821.4
2015-May-15 22:33N 50°30' W 001°08'1413.6
2015-May-15 21:33N 50°42' W 000°59'1313.3
2015-May-15 20:33N 50°47' W 001°19'7 7.0
2015-May-15 19:32N 50°53' W 001°24'0 0.0
2015-May-15 18:29N 50°53' W 001°24'0 0.0
2015-May-15 17:17N 50°53' W 001°24'0 0.0
2015-May-15 16:29N 50°53' W 001°24'0 0.0
2015-May-15 15:32N 50°53' W 001°24'0 0.0
2015-May-15 14:29N 50°53' W 001°24'0 0.0
2015-May-15 13:29N 50°53' W 001°24'0 0.0
2015-May-15 12:32N 50°53' W 001°24'0 0.0
2015-May-15 11:32N 50°53' W 001°24'0 0.0
2015-May-15 10:32N 50°53' W 001°24'0 0.0
2015-May-15 09:32N 50°53' W 001°24'0 0.0
2015-May-15 08:32N 50°53' W 001°24'0 0.0
2015-May-15 07:32N 50°53' W 001°24'0 0.0
2015-May-15 06:32N 50°53' W 001°24'0 0.0
2015-May-15 05:32N 50°53' W 001°24'0 0.0
2015-May-15 04:32N 50°53' W 001°24'0 0.0
2015-May-15 03:32N 50°53' W 001°24'1 1.3
2015-May-15 02:34N 50°52' W 001°22'8 7.8
2015-May-15 01:34N 50°46' W 001°15'1413.5
2015-May-15 00:33N 50°40' W 000°56'6 6.3
2015-May-14 23:33N 50°36' W 000°47'7 6.7
2015-May-14 22:34N 50°34' W 000°37'1914.1
2015-May-14 21:11N 50°33' W 000°07'1016.6
2015-May-14 20:33N 50°35' E 000°09'1616.2
2015-May-14 19:33N 50°38' E 000°34'1615.7
2015-May-14 18:33N 50°46' E 000°55'1616.3
2015-May-14 17:33N 50°57' E 001°14'1918.6
2015-May-14 16:33N 51°09' E 001°37'2120.4
2015-May-14 15:33N 51°24' E 001°59'2218.7
2015-May-14 14:24N 51°23' E 002°33'1214.6
2015-May-14 13:33N 51°23' E 002°53'1514.7
2015-May-14 12:34N 51°25' E 003°16'1313.4
2015-May-14 11:33N 51°26' E 003°38'1212.2
2015-May-14 10:33N 51°23' E 003°57'8 7.9
2015-May-14 09:33N 51°23' E 004°09'7 7.5
2015-May-14 08:33N 51°18' E 004°18'2 2.0
2015-May-14 07:33N 51°16' E 004°17'2 2.3
2015-May-14 06:33N 51°16' E 004°13'0 0.0
2015-May-14 05:31N 51°16' E 004°13'0 0.0
2015-May-14 04:31N 51°16' E 004°13'0 0.0
2015-May-14 03:31N 51°16' E 004°13'0 0.0
2015-May-14 02:25N 51°16' E 004°13'0 0.0
2015-May-14 01:31N 51°16' E 004°13'0 0.0
2015-May-14 00:31N 51°16' E 004°13'0 0.0
2015-May-13 23:25N 51°16' E 004°13'0 0.0
2015-May-13 22:31N 51°16' E 004°13'  
Track history (hours):
 
Tides and Currents Weather Stations Pressure Air Temp Water Temp Dewpoint Dewpoint Depression Visibility Wind Speed Wind Dir Waves Ship Positions

Queen Sapphire

Last reported at 2015-May-23 21:33 UTC. Time now 2015-May-25 03:24 UTC.
Position N 31°12' E 032°18'.

Length 200 m; draft 9.7 m.

Type: Cargo ship. MMSI: 564254000.

Date/timePositionNaut miles runAvg speedWind from/ knotsBaromVisibWave heightAir tempDewpointWater temp
2015-May-23 21:33N 31°12' E 032°18'6 6.5
2015-May-23 20:33N 31°18' E 032°21'4 3.7
2015-May-23 19:33N 31°22' E 032°21'0 0.1
2015-May-23 18:33N 31°22' E 032°21'0 0.0
2015-May-23 17:33N 31°22' E 032°21'0 0.1
2015-May-23 16:33N 31°22' E 032°21'14 7.2
2015-May-23 14:33N 31°33' E 032°11'8 7.7
2015-May-23 13:34N 31°39' E 032°04'7 7.5
2015-May-23 12:33N 31°44' E 031°58'9 8.6
2015-May-23 11:33N 31°47' E 031°49'1212.0
2015-May-23 10:33N 31°50' E 031°35'1111.5
2015-May-23 09:34N 31°52' E 031°22'1 1.4
2015-May-23 08:33N 31°53' E 031°20'2 1.5
2015-May-23 07:33N 31°54' E 031°19'2 1.6
2015-May-23 06:29N 31°55' E 031°18'1 1.4
2015-May-23 05:33N 31°56' E 031°17'1 1.3
2015-May-23 04:33N 31°57' E 031°16'1 1.2
2015-May-23 03:25N 31°58' E 031°15'1 0.6
2015-May-23 02:33N 31°59' E 031°15'1 0.7
2015-May-23 00:32N 31°59' E 031°13'11015.4
2015-May-22 17:22N 32°29' E 029°08'1416.9
2015-May-22 16:33N 32°33' E 028°52'1717.2
2015-May-22 15:33N 32°38' E 028°33'54517.0
2015-May-21 07:23N 35°19' E 018°04'1518.1
2015-May-21 06:33N 35°23' E 017°46'1717.6
2015-May-21 05:33N 35°28' E 017°26'1616.4
2015-May-21 04:33N 35°33' E 017°07'1716.5
2015-May-21 03:33N 35°38' E 016°47'1716.6
2015-May-21 02:33N 35°43' E 016°28'1716.6
2015-May-21 01:33N 35°48' E 016°08'1616.6
2015-May-21 00:33N 35°53' E 015°49'1716.8
2015-May-20 23:33N 35°57' E 015°29'1716.9
2015-May-20 22:33N 36°02' E 015°09'1716.5
2015-May-20 21:33N 36°07' E 014°49'1616.4
2015-May-20 20:33N 36°12' E 014°30'1616.4
2015-May-20 19:33N 36°18' E 014°11'1716.8
2015-May-20 18:33N 36°25' E 013°52'1716.8
2015-May-20 17:33N 36°31' E 013°33'1616.2
2015-May-20 16:33N 36°38' E 013°14'1716.5
2015-May-20 15:33N 36°45' E 012°55'1716.6
2015-May-20 14:33N 36°52' E 012°37'1716.6
2015-May-20 13:33N 36°59' E 012°18'1716.5
2015-May-20 12:33N 37°05' E 011°59'1616.4
2015-May-20 11:33N 37°12' E 011°40'1716.7
2015-May-20 10:33N 37°19' E 011°21'1716.9
2015-May-20 09:33N 37°25' E 011°01'1717.0
2015-May-20 08:33N 37°31' E 010°41'1716.8
2015-May-20 07:32N 37°33' E 010°20'5917.8
2015-May-20 04:12N 37°21' E 009°07'1317.0
2015-May-20 03:28N 37°19' E 008°51'33516.8
2015-May-19 07:33N 36°50' E 001°52'4719.7
2015-May-19 05:11N 36°42' E 000°55'1320.3
2015-May-19 04:32N 36°39' E 000°39'2020.5
2015-May-19 03:33N 36°36' E 000°14'2020.2
2015-May-19 02:32N 36°32' W 000°11'2419.9
2015-May-19 01:19N 36°28' W 000°41'3619.4
2015-May-18 23:28N 36°21' W 001°24'18419.6
2015-May-18 14:07N 35°59' W 005°10'1220.9
2015-May-18 13:33N 35°57' W 005°24'16518.4
2015-May-18 04:33N 36°27' W 008°46'2618.3
2015-May-18 03:07N 36°34' W 009°17'1018.4
2015-May-18 02:33N 36°41' W 009°26'1818.3
2015-May-18 01:33N 36°58' W 009°36'1918.9
2015-May-18 00:33N 37°16' W 009°42'1919.2
2015-May-17 23:33N 37°35' W 009°49'1919.3
2015-May-17 22:33N 37°54' W 009°53'1919.5
2015-May-17 21:33N 38°12' W 009°59'1919.5
2015-May-17 20:33N 38°31' W 010°05'1919.5
2015-May-17 19:33N 38°51' W 010°06'2019.8
2015-May-17 18:33N 39°11' W 010°07'1919.6
2015-May-17 17:33N 39°30' W 010°07'68918.0
2015-May-16 03:21N 49°59' W 003°29'1417.3
2015-May-16 02:32N 50°06' W 003°10'1818.2
2015-May-16 01:33N 50°14' W 002°45'4521.1
2015-May-15 23:24N 50°25' W 001°36'1821.4
2015-May-15 22:33N 50°30' W 001°08'1413.6
2015-May-15 21:33N 50°42' W 000°59'1313.3
2015-May-15 20:33N 50°47' W 001°19'7 7.0
2015-May-15 19:32N 50°53' W 001°24'0 0.0
2015-May-15 18:29N 50°53' W 001°24'0 0.0
2015-May-15 17:17N 50°53' W 001°24'0 0.0
2015-May-15 16:29N 50°53' W 001°24'0 0.0
2015-May-15 15:32N 50°53' W 001°24'0 0.0
2015-May-15 14:29N 50°53' W 001°24'0 0.0
2015-May-15 13:29N 50°53' W 001°24'0 0.0
2015-May-15 12:32N 50°53' W 001°24'0 0.0
2015-May-15 11:32N 50°53' W 001°24'0 0.0
2015-May-15 10:32N 50°53' W 001°24'0 0.0
2015-May-15 09:32N 50°53' W 001°24'0 0.0
2015-May-15 08:32N 50°53' W 001°24'0 0.0
2015-May-15 07:32N 50°53' W 001°24'0 0.0
2015-May-15 06:32N 50°53' W 001°24'0 0.0
2015-May-15 05:32N 50°53' W 001°24'0 0.0
2015-May-15 04:32N 50°53' W 001°24'0 0.0
2015-May-15 03:32N 50°53' W 001°24'1 1.3
2015-May-15 02:34N 50°52' W 001°22'8 7.8
2015-May-15 01:34N 50°46' W 001°15'1413.5
2015-May-15 00:33N 50°40' W 000°56'6 6.3
2015-May-14 23:33N 50°36' W 000°47'7 6.7
2015-May-14 22:34N 50°34' W 000°37'1914.1
2015-May-14 21:11N 50°33' W 000°07'1016.6
2015-May-14 20:33N 50°35' E 000°09'1616.2
2015-May-14 19:33N 50°38' E 000°34'1615.7
2015-May-14 18:33N 50°46' E 000°55'1616.3
2015-May-14 17:33N 50°57' E 001°14'1918.6
2015-May-14 16:33N 51°09' E 001°37'2120.4
2015-May-14 15:33N 51°24' E 001°59'2218.7
2015-May-14 14:24N 51°23' E 002°33'1214.6
2015-May-14 13:33N 51°23' E 002°53'1514.7
2015-May-14 12:34N 51°25' E 003°16'1313.4
2015-May-14 11:33N 51°26' E 003°38'1212.2
2015-May-14 10:33N 51°23' E 003°57'8 7.9
2015-May-14 09:33N 51°23' E 004°09'7 7.5
2015-May-14 08:33N 51°18' E 004°18'2 2.0
2015-May-14 07:33N 51°16' E 004°17'2 2.3
2015-May-14 06:33N 51°16' E 004°13'0 0.0
2015-May-14 05:31N 51°16' E 004°13'0 0.0
2015-May-14 04:31N 51°16' E 004°13'0 0.0
2015-May-14 03:31N 51°16' E 004°13'0 0.0
2015-May-14 02:25N 51°16' E 004°13'0 0.0
2015-May-14 01:31N 51°16' E 004°13'0 0.0
2015-May-14 00:31N 51°16' E 004°13'0 0.0
2015-May-13 23:25N 51°16' E 004°13'0 0.0
2015-May-13 22:31N 51°16' E 004°13'  

Dump ship's entire track history